Time;durP1;ratioP1;P1;durP2;ratioP2;P2;SDS_P1;SDS_P2;PMS_P1;PMS_P2;Temp;Humidity;BMP_temperature;BMP_pressure;BME280_temperature;BME280_humidity;BME280_pressure;Samples;Min_cycle;Max_cycle;Signal;HPM_P1;HPM_P2
2023/12/15 00:00:51;;;;;;;0.10;0.10;;;;;;;4.59;100.00;100220.91;5115993;28;20328;-52
2023/12/15 00:03:38;;;;;;;0.07;0.07;;;;;;;4.49;100.00;100220.25;5116233;28;20198;-52
2023/12/15 00:06:25;;;;;;;0.10;0.10;;;;;;;4.54;100.00;100236.78;5116316;28;20665;-52
2023/12/15 00:09:12;;;;;;;0.10;0.10;;;;;;;4.74;100.00;100243.34;5115896;28;20673;-52
2023/12/15 00:11:59;;;;;;;0.10;0.10;;;;;;;4.67;100.00;100241.75;5114816;28;20194;-52
2023/12/15 00:14:47;;;;;;;0.10;0.10;;;;;;;4.82;100.00;100247.47;5116075;28;20216;-52
2023/12/15 00:17:34;;;;;;;0.00;0.00;;;;;;;4.71;100.00;100249.50;5116005;28;20282;-52
2023/12/15 00:20:22;;;;;;;0.10;0.10;;;;;;;4.65;100.00;100251.41;5115657;28;20225;-52
2023/12/15 00:23:09;;;;;;;0.10;0.10;;;;;;;4.64;100.00;100255.81;5115839;28;20236;-52
2023/12/15 00:25:56;;;;;;;0.00;0.00;;;;;;;4.80;100.00;100259.78;5115796;28;20269;-53
2023/12/15 00:28:43;;;;;;;0.10;0.10;;;;;;;5.30;100.00;100278.72;5114636;28;20212;-52
2023/12/15 00:31:32;;;;;;;0.00;0.00;;;;;;;5.25;100.00;100279.75;5115776;28;20186;-52
2023/12/15 00:34:19;;;;;;;0.03;0.03;;;;;;;5.21;100.00;100284.25;5115858;28;20194;-52
2023/12/15 00:37:06;;;;;;;0.00;0.00;;;;;;;5.29;100.00;100284.03;5115634;28;20186;-52
2023/12/15 00:39:53;;;;;;;0.00;0.00;;;;;;;5.38;100.00;100284.66;5115591;28;20234;-52
2023/12/15 00:42:40;;;;;;;0.00;0.00;;;;;;;5.26;100.00;100276.22;5114196;28;20223;-52
2023/12/15 00:45:27;;;;;;;0.10;0.10;;;;;;;5.12;100.00;100269.56;5115458;28;20198;-52
2023/12/15 00:48:15;;;;;;;0.00;0.00;;;;;;;5.17;100.00;100267.66;5115469;28;20201;-52
2023/12/15 00:51:02;;;;;;;0.00;0.00;;;;;;;5.08;100.00;100269.66;5115202;28;20534;-52
2023/12/15 00:53:49;;;;;;;0.10;0.10;;;;;;;5.07;100.00;100268.78;5114932;28;20194;-52
2023/12/15 00:56:36;;;;;;;0.00;0.00;;;;;;;5.13;100.00;100275.66;5114050;28;20240;-52
2023/12/15 00:59:22;;;;;;;0.10;0.10;;;;;;;5.27;100.00;100285.84;5114553;28;20202;-52
2023/12/15 01:02:09;;;;;;;0.10;0.10;;;;;;;5.11;100.00;100286.19;5114680;28;20684;-52
2023/12/15 01:04:58;;;;;;;0.00;0.00;;;;;;;5.23;100.00;100294.69;5114659;28;20293;-51
2023/12/15 01:07:45;;;;;;;0.10;0.10;;;;;;;5.11;100.00;100299.31;5114704;28;20391;-52
2023/12/15 01:10:35;;;;;;;0.10;0.10;;;;;;;4.87;100.00;100295.50;5114581;28;20661;-52
2023/12/15 01:13:22;;;;;;;0.00;0.00;;;;;;;4.89;100.00;100306.81;5113238;28;20190;-52
2023/12/15 01:16:09;;;;;;;0.10;0.10;;;;;;;4.94;100.00;100301.50;5114408;28;20190;-52
2023/12/15 01:18:56;;;;;;;0.00;0.00;;;;;;;5.08;100.00;100312.53;5114153;28;20292;-52
2023/12/15 01:21:45;;;;;;;0.00;0.00;;;;;;;5.10;100.00;100315.97;5114074;28;20704;-52
2023/12/15 01:24:31;;;;;;;0.00;0.00;;;;;;;5.05;100.00;100320.47;5113794;28;20198;-52
2023/12/15 01:27:18;;;;;;;0.10;0.10;;;;;;;5.33;100.00;100327.72;5112899;28;20316;-52
2023/12/15 01:30:07;;;;;;;0.10;0.10;;;;;;;5.56;100.00;100324.53;5114199;28;20190;-51
2023/12/15 01:32:53;;;;;;;0.10;0.10;;;;;;;5.51;100.00;100329.06;5114135;28;20295;-52
2023/12/15 01:35:40;;;;;;;0.10;0.10;;;;;;;5.42;100.00;100323.13;5114118;28;20277;-52
2023/12/15 01:38:28;;;;;;;0.00;0.00;;;;;;;5.30;100.00;100322.53;5114068;28;20247;-52
2023/12/15 01:41:15;;;;;;;0.00;0.00;;;;;;;5.37;100.00;100324.13;5113863;28;20313;-51
2023/12/15 01:44:02;;;;;;;0.10;0.10;;;;;;;5.29;100.00;100333.94;5114397;28;20244;-52
2023/12/15 01:46:49;;;;;;;0.10;0.10;;;;;;;5.13;100.00;100336.94;5113889;28;20187;-52
2023/12/15 01:49:36;;;;;;;0.10;0.10;;;;;;;5.12;100.00;100335.22;5113652;28;20205;-52
2023/12/15 01:52:23;;;;;;;0.10;0.10;;;;;;;5.34;100.00;100347.84;5113829;28;20252;-52
2023/12/15 01:55:11;;;;;;;0.00;0.00;;;;;;;5.12;100.00;100345.72;5113700;28;20263;-52
2023/12/15 01:57:58;;;;;;;0.10;0.10;;;;;;;5.28;100.00;100358.47;5112529;28;20190;-52
2023/12/15 02:00:47;;;;;;;0.00;0.00;;;;;;;5.13;100.00;100355.31;5113559;28;20252;-52
2023/12/15 02:03:37;;;;;;;0.00;0.00;;;;;;;5.01;100.00;100352.06;5113503;28;20194;-52
2023/12/15 02:06:24;;;;;;;0.00;0.00;;;;;;;4.92;100.00;100362.78;5113518;28;20287;-52
2023/12/15 02:09:11;;;;;;;0.10;0.10;;;;;;;4.89;100.00;100374.22;5113302;28;20202;-51
2023/12/15 02:11:59;;;;;;;0.10;0.10;;;;;;;4.95;100.00;100389.00;5112118;28;20263;-52
2023/12/15 02:14:46;;;;;;;0.00;0.00;;;;;;;4.94;100.00;100385.50;5113188;28;20202;-51
2023/12/15 02:17:33;;;;;;;0.10;0.10;;;;;;;4.96;100.00;100388.94;5113115;28;20234;-52
2023/12/15 02:20:20;;;;;;;0.10;0.10;;;;;;;5.09;100.00;100393.03;5113248;28;20284;-52
2023/12/15 02:23:08;;;;;;;0.10;0.10;;;;;;;5.18;100.00;100400.72;5113278;28;20252;-52
2023/12/15 02:25:55;;;;;;;0.00;0.00;;;;;;;4.99;100.00;100386.25;5113361;28;20193;-52
2023/12/15 02:28:42;;;;;;;0.10;0.10;;;;;;;5.01;100.00;100389.69;5111871;28;20218;-52
2023/12/15 02:31:29;;;;;;;0.10;0.10;;;;;;;4.84;100.00;100392.69;5113218;28;20210;-52
2023/12/15 02:34:16;;;;;;;0.10;0.10;;;;;;;4.84;100.00;100394.47;5112677;28;20194;-52
2023/12/15 02:37:03;;;;;;;0.00;0.00;;;;;;;5.02;100.00;100394.09;5113017;28;20191;-52
2023/12/15 02:39:51;;;;;;;0.10;0.10;;;;;;;4.90;100.00;100399.56;5113012;28;20522;-52
2023/12/15 02:42:38;;;;;;;0.10;0.10;;;;;;;4.80;100.00;100412.03;5111603;28;20206;-52
2023/12/15 02:45:24;;;;;;;0.10;0.10;;;;;;;4.90;100.00;100412.69;5112853;28;20236;-52
2023/12/15 02:48:11;;;;;;;0.10;0.10;;;;;;;4.74;100.00;100422.66;5112958;28;20202;-52
2023/12/15 02:50:58;;;;;;;0.10;0.10;;;;;;;4.66;100.00;100431.56;5112734;28;20202;-52
2023/12/15 02:53:45;;;;;;;0.10;0.10;;;;;;;4.79;100.00;100435.69;5112824;28;20236;-51
2023/12/15 02:56:33;;;;;;;0.10;0.10;;;;;;;4.82;100.00;100433.84;5112084;28;20255;-52
2023/12/15 02:59:20;;;;;;;0.07;0.07;;;;;;;4.82;100.00;100446.09;5112782;28;20189;-52
2023/12/15 03:02:07;;;;;;;0.10;0.10;;;;;;;4.85;100.00;100435.56;5112302;28;20229;-52
2023/12/15 03:04:54;;;;;;;0.10;0.10;;;;;;;4.90;100.00;100431.06;5112608;28;20190;-52
2023/12/15 03:07:41;;;;;;;0.10;0.10;;;;;;;4.86;100.00;100432.91;5112793;28;20232;-52
2023/12/15 03:10:27;;;;;;;0.10;0.10;;;;;;;4.87;100.00;100428.53;5112400;28;20202;-52
2023/12/15 03:13:16;;;;;;;0.10;0.10;;;;;;;4.82;100.00;100418.09;5111307;28;20267;-52
2023/12/15 03:16:05;;;;;;;0.10;0.10;;;;;;;4.81;100.00;100418.13;5112707;28;20190;-52
2023/12/15 03:18:52;;;;;;;0.00;0.00;;;;;;;4.75;100.00;100426.16;5112157;28;20234;-52
2023/12/15 03:21:39;;;;;;;0.00;0.00;;;;;;;4.77;100.00;100426.97;5112361;28;20222;-52
2023/12/15 03:24:26;;;;;;;0.10;0.10;;;;;;;4.85;100.00;100433.81;5112596;28;20214;-52
2023/12/15 03:27:13;;;;;;;0.10;0.10;;;;;;;4.71;100.00;100438.44;5110903;28;20244;-52
2023/12/15 03:30:01;;;;;;;0.10;0.10;;;;;;;4.80;100.00;100442.66;5112404;28;20198;-52
2023/12/15 03:32:48;;;;;;;0.00;0.00;;;;;;;4.70;100.00;100448.97;5112686;28;20195;-52
2023/12/15 03:35:35;;;;;;;0.00;0.00;;;;;;;4.93;100.00;100461.66;5112313;28;20190;-52
2023/12/15 03:38:22;;;;;;;0.10;0.10;;;;;;;4.73;100.00;100459.41;5112434;28;20198;-52
2023/12/15 03:41:12;;;;;;;0.00;0.00;;;;;;;4.86;100.00;100460.91;5111210;28;20210;-52
2023/12/15 03:43:59;;;;;;;0.00;0.00;;;;;;;4.72;100.00;100462.94;5112092;28;20191;-52
2023/12/15 03:46:47;;;;;;;0.10;0.10;;;;;;;4.64;100.00;100472.72;5114118;28;20190;-51
2023/12/15 03:49:34;;;;;;;0.00;0.00;;;;;;;4.68;100.00;100477.00;5116244;28;20199;-52
2023/12/15 03:52:21;;;;;;;0.10;0.10;;;;;;;4.75;100.00;100476.00;5115917;28;20182;-52
2023/12/15 03:55:09;;;;;;;0.00;0.00;;;;;;;4.65;100.00;100477.09;5116116;28;20190;-52
2023/12/15 03:57:56;;;;;;;0.00;0.00;;;;;;;4.86;100.00;100480.16;5114700;28;20227;-52
2023/12/15 04:00:42;;;;;;;0.10;0.10;;;;;;;4.92;100.00;100481.78;5115738;28;20194;-52
2023/12/15 04:03:31;;;;;;;0.10;0.10;;;;;;;5.04;100.00;100476.31;5116220;28;20276;-52
2023/12/15 04:06:18;;;;;;;0.10;0.10;;;;;;;4.96;100.00;100475.59;5115940;28;20190;-52
2023/12/15 04:09:05;;;;;;;0.10;0.10;;;;;;;5.15;100.00;100481.34;5115458;28;20198;-52
2023/12/15 04:11:52;;;;;;;0.00;0.00;;;;;;;5.32;100.00;100476.59;5114641;28;20275;-52
2023/12/15 04:14:39;;;;;;;0.10;0.10;;;;;;;5.39;100.00;100479.94;5115759;28;20194;-52
2023/12/15 04:17:26;;;;;;;0.00;0.00;;;;;;;5.20;100.00;100478.59;5115484;28;20271;-52
2023/12/15 04:20:15;;;;;;;0.10;0.10;;;;;;;5.08;100.00;100472.72;5115702;28;20281;-51
2023/12/15 04:23:02;;;;;;;0.10;0.10;;;;;;;5.14;100.00;100483.09;5115199;28;20217;-51
2023/12/15 04:25:49;;;;;;;0.00;0.00;;;;;;;5.33;100.00;100480.97;5115507;28;20190;-52
2023/12/15 04:28:36;;;;;;;0.00;0.00;;;;;;;5.39;100.00;100477.31;5114321;28;20342;-51
2023/12/15 04:31:23;;;;;;;0.10;0.10;;;;;;;5.37;100.00;100468.59;5115663;28;20319;-52
2023/12/15 04:34:10;;;;;;;0.00;0.00;;;;;;;5.02;100.00;100467.59;5115266;28;20202;-52
2023/12/15 04:36:57;;;;;;;0.00;0.00;;;;;;;4.96;100.00;100465.09;5115373;28;20194;-51
2023/12/15 04:39:46;;;;;;;0.03;0.03;;;;;;;4.88;100.00;100480.97;5115225;28;20300;-52
2023/12/15 04:42:33;;;;;;;0.00;0.00;;;;;;;4.90;100.00;100488.81;5113538;28;20221;-52
2023/12/15 04:45:20;;;;;;;0.00;0.00;;;;;;;4.75;100.00;100495.25;5115065;28;20308;-52
2023/12/15 04:48:08;;;;;;;0.10;0.10;;;;;;;4.98;100.00;100491.31;5115038;28;20213;-52
2023/12/15 04:50:55;;;;;;;0.10;0.10;;;;;;;4.95;100.00;100494.88;5115004;28;20190;-51
2023/12/15 04:53:44;;;;;;;0.00;0.00;;;;;;;5.30;100.00;100516.91;5114877;28;20305;-52
2023/12/15 04:56:31;;;;;;;0.10;0.10;;;;;;;5.40;100.00;100514.09;5113668;28;20336;-52
2023/12/15 04:59:18;;;;;;;0.00;0.00;;;;;;;5.28;100.00;100509.06;5113753;28;20289;-52
2023/12/15 05:02:05;;;;;;;0.00;0.00;;;;;;;5.33;100.00;100506.38;5114866;28;20210;-52
2023/12/15 05:04:52;;;;;;;0.00;0.00;;;;;;;5.46;100.00;100513.06;5114847;28;20187;-52
2023/12/15 05:07:39;;;;;;;0.10;0.10;;;;;;;5.33;100.00;100511.63;5114632;28;20197;-52
2023/12/15 05:10:27;;;;;;;0.10;0.10;;;;;;;5.22;100.00;100511.84;5114482;28;20198;-52
2023/12/15 05:13:14;;;;;;;0.00;0.00;;;;;;;5.39;100.00;100520.22;5113432;28;20190;-52
2023/12/15 05:16:01;;;;;;;0.07;0.07;;;;;;;5.60;100.00;100511.03;5114662;28;20206;-52
2023/12/15 05:18:48;;;;;;;0.00;0.00;;;;;;;5.38;100.00;100517.63;5114178;28;20229;-52
2023/12/15 05:21:34;;;;;;;0.10;0.10;;;;;;;5.32;100.00;100520.41;5114304;28;20194;-52
2023/12/15 05:24:21;;;;;;;0.10;0.10;;;;;;;5.40;100.00;100521.97;5114285;28;20202;-52
2023/12/15 05:27:10;;;;;;;0.00;0.00;;;;;;;5.38;100.00;100529.00;5113234;28;20343;-52
2023/12/15 05:29:57;;;;;;;0.00;0.00;;;;;;;5.42;100.00;100529.81;5114255;28;20198;-51
2023/12/15 05:32:44;;;;;;;0.00;0.00;;;;;;;5.06;100.00;100527.03;5114271;28;20684;-52
2023/12/15 05:35:31;;;;;;;0.10;0.10;;;;;;;5.46;100.00;100539.34;5114216;28;20205;-52
2023/12/15 05:38:18;;;;;;;0.10;0.10;;;;;;;5.55;100.00;100549.66;5114207;28;20193;-52
2023/12/15 05:41:05;;;;;;;0.00;0.00;;;;;;;5.25;100.00;100553.78;5114163;28;20247;-51
2023/12/15 05:43:53;;;;;;;0.10;0.10;;;;;;;5.07;100.00;100557.63;5113447;28;20284;-52
2023/12/15 05:46:41;;;;;;;0.00;0.00;;;;;;;5.11;100.00;100561.94;5113846;28;20191;-52
2023/12/15 05:49:28;;;;;;;0.00;0.00;;;;;;;4.98;100.00;100557.81;5113842;28;20216;-52
2023/12/15 05:52:15;;;;;;;0.10;0.10;;;;;;;4.92;100.00;100559.69;5113787;28;20260;-52
2023/12/15 05:55:02;;;;;;;0.10;0.10;;;;;;;4.89;100.00;100568.47;5113796;28;20193;-52
2023/12/15 05:57:49;;;;;;;0.10;0.10;;;;;;;4.78;100.00;100567.81;5112502;28;20187;-52
2023/12/15 06:00:38;;;;;;;0.10;0.10;;;;;;;4.77;100.00;100568.72;5113748;28;20190;-52
2023/12/15 06:03:24;;;;;;;0.10;0.10;;;;;;;4.92;100.00;100568.41;5113407;28;20213;-52
2023/12/15 06:06:13;;;;;;;0.03;0.03;;;;;;;4.97;100.00;100566.59;5113730;28;20190;-52
2023/12/15 06:09:00;;;;;;;0.00;0.00;;;;;;;4.91;100.00;100573.69;5113445;28;20198;-52
2023/12/15 06:11:47;;;;;;;0.00;0.00;;;;;;;4.82;100.00;100572.97;5112179;28;20255;-52
2023/12/15 06:14:34;;;;;;;0.03;0.03;;;;;;;4.55;100.00;100576.94;5113582;28;20235;-52
2023/12/15 06:17:22;;;;;;;0.03;0.03;;;;;;;4.62;100.00;100587.31;5113325;28;20181;-52
2023/12/15 06:20:10;;;;;;;0.10;0.10;;;;;;;4.63;100.00;100584.66;5113340;28;20250;-52
2023/12/15 06:22:58;;;;;;;0.10;0.10;;;;;;;4.50;100.00;100596.28;5113091;28;20272;-51
2023/12/15 06:25:45;;;;;;;0.10;0.10;;;;;;;4.83;100.00;100594.84;5113167;28;20209;-52
2023/12/15 06:28:31;;;;;;;0.10;0.10;;;;;;;4.60;100.00;100603.97;5111972;28;20193;-52
2023/12/15 06:31:18;;;;;;;0.07;0.07;;;;;;;4.60;100.00;100605.72;5113333;28;20197;-52
2023/12/15 06:34:07;;;;;;;0.10;0.10;;;;;;;4.43;100.00;100605.13;5112928;28;20182;-52
2023/12/15 06:36:54;;;;;;;0.00;0.00;;;;;;;4.60;100.00;100617.09;5112957;28;20210;-52
2023/12/15 06:39:41;;;;;;;0.10;0.10;;;;;;;4.71;100.00;100614.28;5112935;28;20205;-52
2023/12/15 06:42:29;;;;;;;0.10;0.10;;;;;;;4.57;100.00;100618.91;5111490;28;20295;-52
2023/12/15 06:45:16;;;;;;;0.10;0.10;;;;;;;4.57;100.00;100618.91;5113013;28;20232;-51
2023/12/15 06:48:03;;;;;;;0.10;0.10;;;;;;;4.70;100.00;100635.31;5112955;28;20198;-52
2023/12/15 06:50:52;;;;;;;0.10;0.10;;;;;;;4.54;100.00;100629.47;5112791;28;20264;-52
2023/12/15 06:53:39;;;;;;;0.10;0.10;;;;;;;4.56;100.00;100638.16;5112814;28;20195;-52
2023/12/15 06:56:25;;;;;;;0.10;0.10;;;;;;;4.64;100.00;100638.06;5112058;28;20217;-52
2023/12/15 06:59:12;;;;;;;0.10;0.10;;;;;;;4.73;100.00;100645.75;5112703;28;20202;-51
2023/12/15 07:01:59;;;;;;;0.10;0.10;;;;;;;5.07;100.00;100651.31;5112627;28;20641;-52
2023/12/15 07:04:46;;;;;;;0.10;0.10;;;;;;;5.14;100.00;100661.69;5112799;28;20189;-52
2023/12/15 07:07:34;;;;;;;0.10;0.10;;;;;;;5.41;100.00;100667.34;5112922;28;20201;-52
2023/12/15 07:10:22;;;;;;;0.00;0.00;;;;;;;5.78;100.00;100669.25;5112570;28;20198;-53
2023/12/15 07:13:09;;;;;;;0.10;0.10;;;;;;;5.55;100.00;100665.31;5111366;28;20189;-52
2023/12/15 07:15:56;;;;;;;0.00;0.00;;;;;;;5.39;100.00;100672.59;5112640;28;20255;-52
2023/12/15 07:18:42;;;;;;;0.00;0.00;;;;;;;5.23;100.00;100681.69;5112310;28;20218;-52
2023/12/15 07:21:31;;;;;;;0.10;0.10;;;;;;;4.99;100.00;100675.06;5114106;28;20259;-52
2023/12/15 07:24:20;;;;;;;0.00;0.00;;;;;;;4.89;100.00;100684.84;5115352;28;20229;-52
2023/12/15 07:27:07;;;;;;;0.10;0.10;;;;;;;4.75;100.00;100683.34;5115246;28;20202;-52
2023/12/15 07:29:54;;;;;;;0.00;0.00;;;;;;;4.73;100.00;100686.00;5116416;28;20189;-53
2023/12/15 07:32:41;;;;;;;0.00;0.00;;;;;;;4.75;100.00;100694.72;5116588;28;20194;-52
2023/12/15 07:35:28;;;;;;;0.10;0.10;;;;;;;4.64;100.00;100690.53;5116401;28;20194;-52
2023/12/15 07:38:18;;;;;;;0.00;0.00;;;;;;;4.78;100.00;100699.06;5116498;28;20185;-52
2023/12/15 07:41:08;;;;;;;0.00;0.00;;;;;;;5.71;100.00;100700.06;5116340;28;20240;-52
2023/12/15 07:43:55;;;;;;;0.00;0.00;;;;;;;5.59;100.00;100701.13;5115719;28;20729;-52
2023/12/15 07:46:42;;;;;;;0.00;0.00;;;;;;;5.31;100.00;100692.91;5116295;28;20190;-53
2023/12/15 07:49:30;;;;;;;0.03;0.03;;;;;;;5.18;100.00;100699.25;5116589;28;20190;-52
2023/12/15 07:52:16;;;;;;;0.10;0.10;;;;;;;5.07;100.00;100703.84;5116129;28;20346;-52
2023/12/15 07:55:04;;;;;;;0.00;0.00;;;;;;;5.08;100.00;100709.06;5115931;28;20313;-52
2023/12/15 07:57:52;;;;;;;0.03;0.03;;;;;;;5.01;100.00;100717.91;5115047;28;20194;-53
2023/12/15 08:00:39;;;;;;;0.00;0.00;;;;;;;5.04;100.00;100709.16;5115958;28;20190;-52
2023/12/15 08:03:26;;;;;;;0.10;0.10;;;;;;;4.99;100.00;100711.84;5115997;28;20256;-52
2023/12/15 08:06:14;;;;;;;0.00;0.00;;;;;;;5.11;100.00;100706.38;5116172;28;20202;-52
2023/12/15 08:09:01;;;;;;;0.00;0.00;;;;;;;5.21;100.00;100704.47;5115841;28;20186;-53
2023/12/15 08:11:48;;;;;;;0.03;0.03;;;;;;;4.86;100.00;100718.19;5114616;28;20392;-52
2023/12/15 08:14:36;;;;;;;0.00;0.00;;;;;;;5.07;100.00;100724.84;5115876;28;20645;-52
2023/12/15 08:17:23;;;;;;;0.00;0.00;;;;;;;4.91;100.00;100728.59;5115609;28;20202;-52
2023/12/15 08:20:11;;;;;;;0.00;0.00;;;;;;;4.99;100.00;100737.22;5115723;28;20271;-52
2023/12/15 08:22:58;;;;;;;0.10;0.10;;;;;;;4.95;100.00;100738.19;5115715;28;20198;-53
2023/12/15 08:25:45;;;;;;;0.10;0.10;;;;;;;4.97;100.00;100746.88;5115617;28;20324;-52
2023/12/15 08:28:31;;;;;;;0.10;0.10;;;;;;;5.17;100.00;100757.94;5114365;28;20186;-53
2023/12/15 08:31:20;;;;;;;0.00;0.00;;;;;;;5.40;100.00;100758.44;5115466;28;20186;-52
2023/12/15 08:34:07;;;;;;;0.10;0.10;;;;;;;5.31;100.00;100757.72;5114040;28;20214;-53
2023/12/15 08:36:53;;;;;;;0.00;0.00;;;;;;;5.27;100.00;100758.66;5115205;28;20252;-52
2023/12/15 08:39:40;;;;;;;0.10;0.10;;;;;;;5.13;100.00;100756.28;5115332;28;20202;-52
2023/12/15 08:42:27;;;;;;;0.10;0.10;;;;;;;4.77;100.00;100770.81;5113987;28;20256;-52
2023/12/15 08:45:14;;;;;;;0.10;0.10;;;;;;;4.99;100.00;100769.59;5114878;28;20256;-52
2023/12/15 08:48:02;;;;;;;0.00;0.00;;;;;;;5.06;100.00;100770.38;5114870;28;20190;-52
2023/12/15 08:50:49;;;;;;;0.00;0.00;;;;;;;5.13;100.00;100777.28;5115231;28;20210;-52
2023/12/15 08:53:36;;;;;;;0.00;0.00;;;;;;;5.49;100.00;100783.66;5115203;28;20229;-52
2023/12/15 08:56:23;;;;;;;0.10;0.10;;;;;;;5.63;100.00;100788.72;5114379;28;20225;-52
2023/12/15 08:59:10;;;;;;;0.10;0.10;;;;;;;5.44;100.00;100793.41;5115078;28;20289;-52
2023/12/15 09:01:57;;;;;;;0.00;0.00;;;;;;;5.69;100.00;100799.09;5115027;28;20193;-53
2023/12/15 09:04:46;;;;;;;0.00;0.00;;;;;;;5.56;100.00;100808.09;5114390;28;20230;-53
2023/12/15 09:07:47;;;;;;;0.00;0.00;;;;;;;5.66;100.00;100796.53;5114910;28;20193;-52
2023/12/15 09:10:41;;;;;;;0.10;0.10;;;;;;;5.61;100.00;100801.88;5114746;28;20198;-53
2023/12/15 09:13:28;;;;;;;0.00;0.00;;;;;;;5.55;100.00;100809.84;5113573;28;20186;-52
2023/12/15 09:16:14;;;;;;;0.00;0.00;;;;;;;5.65;100.00;100821.09;5114622;28;20688;-52
2023/12/15 09:19:02;;;;;;;0.10;0.10;;;;;;;5.65;100.00;100824.56;5114211;28;20295;-53
2023/12/15 09:21:50;;;;;;;0.00;0.00;;;;;;;5.63;100.00;100825.50;5114600;28;20202;-52
2023/12/15 09:24:37;;;;;;;0.00;0.00;;;;;;;6.00;100.00;100837.16;5114341;28;20385;-53
2023/12/15 09:27:24;;;;;;;0.10;0.10;;;;;;;6.01;100.00;100838.88;5113267;28;20256;-52
2023/12/15 09:30:11;;;;;;;0.00;0.00;;;;;;;5.86;100.00;100841.75;5114239;28;20190;-52
2023/12/15 09:32:58;;;;;;;0.00;0.00;;;;;;;5.90;100.00;100847.84;5114419;28;20244;-52
2023/12/15 09:35:45;;;;;;;0.00;0.00;;;;;;;5.61;100.00;100850.97;5114154;28;20700;-52
2023/12/15 09:38:33;;;;;;;0.10;0.10;;;;;;;5.72;100.00;100857.75;5113680;28;20645;-52
2023/12/15 09:41:20;;;;;;;0.10;0.10;;;;;;;5.90;100.00;100863.63;5113492;28;20228;-53
2023/12/15 09:44:07;;;;;;;0.10;0.10;;;;;;;5.80;100.00;100860.28;5113540;28;20291;-53
2023/12/15 09:46:55;;;;;;;0.00;0.00;;;;;;;5.88;100.00;100865.38;5114029;28;20189;-53
2023/12/15 09:49:47;;;;;;;0.10;0.10;;;;;;;6.03;100.00;100866.03;5113860;28;20194;-52
2023/12/15 09:52:39;;;;;;;0.10;0.10;;;;;;;6.26;100.00;100865.59;5113906;28;20281;-52
2023/12/15 09:55:29;;;;;;;0.00;0.00;;;;;;;6.15;100.00;100864.91;5113677;28;20243;-52
2023/12/15 09:58:16;;;;;;;0.00;0.00;;;;;;;6.17;100.00;100871.00;5112571;28;20408;-53
2023/12/15 10:01:03;;;;;;;0.07;0.07;;;;;;;6.05;100.00;100867.75;5113938;28;20317;-53
2023/12/15 10:03:50;;;;;;;0.10;0.10;;;;;;;5.84;100.00;100879.47;5113720;28;20194;-53
2023/12/15 10:06:38;;;;;;;0.00;0.00;;;;;;;6.06;100.00;100890.53;5113845;28;20197;-53
2023/12/15 10:09:24;;;;;;;0.10;0.10;;;;;;;6.11;100.00;100892.19;5113645;28;20240;-52
2023/12/15 10:12:15;;;;;;;0.10;0.10;;;;;;;5.86;100.00;100891.69;5112293;28;20244;-52
2023/12/15 10:15:02;;;;;;;0.00;0.00;;;;;;;5.86;100.00;100891.69;5113623;28;20185;-52
2023/12/15 10:17:50;;;;;;;0.00;0.00;;;;;;;5.71;100.00;100898.09;5113460;28;20296;-52
2023/12/15 10:20:38;;;;;;;0.10;0.10;;;;;;;6.08;100.00;100901.88;5113417;28;20260;-52
2023/12/15 10:23:28;;;;;;;0.10;0.10;;;;;;;6.10;100.00;100910.63;5113256;28;20195;-52
2023/12/15 10:26:15;;;;;;;0.00;0.00;;;;;;;6.10;100.00;100908.00;5112968;28;20332;-52
2023/12/15 10:29:03;;;;;;;0.10;0.10;;;;;;;6.06;100.00;100909.81;5113515;28;20206;-52
2023/12/15 10:31:51;;;;;;;0.00;0.00;;;;;;;6.16;100.00;100910.50;5113222;28;20265;-52
2023/12/15 10:34:39;;;;;;;0.10;0.10;;;;;;;6.16;100.00;100914.00;5113303;28;20260;-53
2023/12/15 10:37:26;;;;;;;0.00;0.00;;;;;;;6.16;100.00;100919.28;5113325;28;20680;-52
2023/12/15 10:40:14;;;;;;;0.10;0.10;;;;;;;5.91;100.00;100918.84;5113200;28;20190;-53
2023/12/15 10:43:01;;;;;;;0.00;0.00;;;;;;;6.07;100.00;100919.44;5110882;28;20190;-52
2023/12/15 10:45:50;;;;;;;0.10;0.10;;;;;;;6.30;100.00;100924.31;5112579;28;20234;-52
2023/12/15 10:48:40;;;;;;;0.00;0.00;;;;;;;6.28;100.00;100924.34;5113203;28;20194;-52
2023/12/15 10:51:28;;;;;;;0.10;0.10;;;;;;;6.34;100.00;100939.13;5113051;28;20232;-53
2023/12/15 10:54:17;;;;;;;0.10;0.10;;;;;;;6.42;100.00;100939.00;5113034;28;20198;-53
2023/12/15 10:57:05;;;;;;;0.10;0.10;;;;;;;6.32;100.00;100933.03;5110951;28;20193;-52
2023/12/15 10:59:52;;;;;;;0.10;0.10;;;;;;;6.15;100.00;100932.47;5112437;28;20228;-52
2023/12/15 11:02:40;;;;;;;0.10;0.10;;;;;;;6.30;100.00;100937.47;5112987;28;20187;-53
2023/12/15 11:05:28;;;;;;;0.10;0.10;;;;;;;6.17;100.00;100936.78;5112515;28;20217;-53
2023/12/15 11:08:23;;;;;;;0.10;0.10;;;;;;;6.27;100.00;100938.41;5112904;28;20237;-53
2023/12/15 11:11:22;;;;;;;0.00;0.00;;;;;;;6.24;100.00;100934.94;5112593;28;20267;-53
2023/12/15 11:14:09;;;;;;;0.00;0.00;;;;;;;6.23;100.00;100935.81;5112697;28;20190;-52
2023/12/15 11:16:56;;;;;;;0.00;0.00;;;;;;;6.25;100.00;100934.03;5112791;28;20193;-53
2023/12/15 11:19:45;;;;;;;0.07;0.07;;;;;;;6.47;100.00;100937.16;5112808;28;20198;-53
2023/12/15 11:22:41;;;;;;;0.10;0.10;;;;;;;6.58;100.00;100941.31;5112765;28;20625;-53
2023/12/15 11:25:31;;;;;;;0.00;0.00;;;;;;;6.81;100.00;100947.91;5111544;28;20222;-53
2023/12/15 11:28:20;;;;;;;0.00;0.00;;;;;;;6.80;100.00;100943.53;5111476;28;20197;-52
2023/12/15 11:31:22;;;;;;;0.00;0.00;;;;;;;6.53;100.00;100931.75;5113048;28;20194;-53
2023/12/15 11:34:10;;;;;;;0.10;0.10;;;;;;;6.56;100.00;100931.69;5112682;28;20201;-53
2023/12/15 11:36:58;;;;;;;0.00;0.00;;;;;;;7.07;100.00;100928.94;5112628;28;20288;-52
2023/12/15 11:39:47;;;;;;;0.10;0.10;;;;;;;7.05;100.00;100926.34;5112129;28;20634;-53
2023/12/15 11:42:34;;;;;;;0.00;0.00;;;;;;;6.87;100.00;100922.31;5111246;28;20183;-53
2023/12/15 11:45:21;;;;;;;0.10;0.10;;;;;;;6.94;100.00;100923.03;5112469;28;20303;-53
2023/12/15 11:48:09;;;;;;;0.00;0.00;;;;;;;6.82;100.00;100923.28;5112533;28;20198;-53
2023/12/15 11:50:56;;;;;;;0.00;0.00;;;;;;;7.10;100.00;100931.50;5112448;28;20282;-53
2023/12/15 11:53:48;;;;;;;0.10;0.10;;;;;;;6.91;100.00;100928.38;5112268;28;20664;-52
2023/12/15 11:56:35;;;;;;;0.00;0.00;;;;;;;6.87;100.00;100919.69;5111340;28;20275;-53
2023/12/15 11:59:22;;;;;;;0.00;0.00;;;;;;;6.97;100.00;100919.50;5112675;28;20190;-53
2023/12/15 12:02:09;;;;;;;0.10;0.10;;;;;;;6.93;100.00;100923.06;5112904;28;20190;-52
2023/12/15 12:04:56;;;;;;;0.10;0.10;;;;;;;7.10;100.00;100919.19;5112219;28;20267;-52
2023/12/15 12:07:43;;;;;;;0.10;0.10;;;;;;;6.98;100.00;100924.72;5114405;28;20703;-52
2023/12/15 12:10:32;;;;;;;0.00;0.00;;;;;;;7.20;100.00;100927.78;5116371;28;20193;-52
2023/12/15 12:13:19;;;;;;;0.00;0.00;;;;;;;7.16;100.00;100926.97;5115003;28;20233;-53
2023/12/15 12:16:07;;;;;;;0.00;0.00;;;;;;;7.10;100.00;100924.47;5116380;28;20263;-52
2023/12/15 12:18:56;;;;;;;0.00;0.00;;;;;;;7.08;100.00;100938.56;5115964;28;20727;-52
2023/12/15 12:21:47;;;;;;;0.00;0.00;;;;;;;7.05;100.00;100930.75;5116213;28;20198;-52
2023/12/15 12:24:33;;;;;;;0.00;0.00;;;;;;;7.09;100.00;100925.38;5116156;28;20193;-52
2023/12/15 12:27:22;;;;;;;0.00;0.00;;;;;;;7.27;100.00;100905.66;5114774;28;20193;-52
2023/12/15 12:30:11;;;;;;;0.00;0.00;;;;;;;7.30;100.00;100904.72;5115983;28;20194;-52
2023/12/15 12:32:59;;;;;;;0.00;0.00;;;;;;;7.20;100.00;100921.63;5116001;28;20194;-52
2023/12/15 12:35:46;;;;;;;0.10;0.10;;;;;;;7.50;100.00;100920.06;5115811;28;20182;-53
2023/12/15 12:38:32;;;;;;;0.10;0.10;;;;;;;7.47;100.00;100934.19;5115436;28;20194;-53
2023/12/15 12:41:20;;;;;;;0.00;0.00;;;;;;;7.51;100.00;100935.00;5114498;28;20201;-52
2023/12/15 12:44:08;;;;;;;0.10;0.10;;;;;;;7.63;100.00;100940.88;5115567;28;20198;-52
2023/12/15 12:46:55;;;;;;;0.10;0.10;;;;;;;7.67;100.00;100939.88;5115397;28;20226;-52
2023/12/15 12:49:44;;;;;;;0.00;0.00;;;;;;;7.61;100.00;100940.00;5115681;28;20194;-52
2023/12/15 12:52:38;;;;;;;0.00;0.00;;;;;;;7.70;100.00;100949.47;5115388;28;20194;-53
2023/12/15 12:55:25;;;;;;;0.10;0.10;;;;;;;7.71;100.00;100954.72;5115573;28;20201;-52
2023/12/15 12:58:12;;;;;;;0.03;0.03;;;;;;;7.65;100.00;100959.28;5114219;28;20276;-52